Airfield :
LOGIN :

Register | Disclaimer

   EN    FR    IT 

 










Legend :    VFR   Marginal VFR   IFR   Intensive IFR   Very Intensive IFR
Visi :
Ceiling :
>= 8 km
>= 3000ft
5 to 8 km
1000 to 3000 ft
1500m to 5 km
500 to 1000 ft
800 to 1500m
200 to 500 ft
< 800m
< 200 ft
Symbols :   Thunderstorms  Fog  Heavy snow  Heavy precipitations  Wind > 20 kt
SIGMETs :     Misc.  Thunderstorms  Icing  Turbulence  Mountain Waves  Volcanic Ashes






- Airport Elevation : 80 ft
- IATA code : LPL


EGGP - Liverpool John Lennon

CURRENT METAR :
  • 131820Z 29009KT 9999 VCSH FEW015 OVC030 17/14 Q1018

EXPIRED METARs :
  • 131750Z 29009KT 9999 VCSH FEW015 OVC030 17/14 Q1019
  • 131720Z 29009KT 9999 VCSH FEW015 OVC025 17/13 Q1019
  • 131650Z 31009KT 260V330 9999 VCSH FEW015 BKN020 OVC025 18/14 Q1019
  • 131620Z 29010KT 9999 VCSH BKN020 OVC025 18/14 Q1019
  • 131550Z 29011KT 9999 VCSH FEW010 BKN016 OVC018 17/14 Q1019

TAF TAF EGGP
Valid from the 13 at 18:00 until the 14 at 18:00 UTC


131653Z 1318/1418 30009KT 9999 SCT040
PROB30
TEMPO 1318/1324 7000 SHRA BKN008
PROB30
TEMPO 1403/1416 7000 SHRA BKN012
ATIS : +44 151 907 2000 (option 5 or ext 5150)
Met : +44 871 750 5150



MET'MAP, your aeronautical weather chart ! - Copyright ORBIFLY December 2007 - Disclaimer

ORBIFLY MET'MAP TEAM :

Programming & Development : Alexandra Zaïnal
Concept & original design : Baudouin d'Aumeries
Assistance for programming : Marc-Olivier Méhu
Technical & hardware support : Manuel Goepfert

Contact : metmap@orbifly.com




SOURCES & CREDITS :

   NOAA